Time;durP1;ratioP1;P1;durP2;ratioP2;P2;SDS_P1;SDS_P2;PMS_P1;PMS_P2;Temp;Humidity;BMP_temperature;BMP_pressure;BME280_temperature;BME280_humidity;BME280_pressure;Samples;Min_cycle;Max_cycle;Signal;HPM_P1;HPM_P2
2023/09/21 00:01:43;;;;;;;2.83;2.00;;;14.80;95.60;;;;;;5007096;28;20484;-67
2023/09/21 00:04:10;;;;;;;4.67;1.80;;;14.80;95.70;;;;;;4998111;28;20482;-68
2023/09/21 00:06:36;;;;;;;3.30;1.30;;;14.80;95.60;;;;;;4982773;28;20489;-67
2023/09/21 00:09:04;;;;;;;4.20;2.03;;;14.70;95.80;;;;;;4998870;28;20570;-67
2023/09/21 00:11:31;;;;;;;2.20;1.20;;;14.70;95.90;;;;;;5000484;28;20481;-67
2023/09/21 00:13:59;;;;;;;2.47;1.63;;;14.60;95.70;;;;;;4990954;28;20480;-67
2023/09/21 00:16:27;;;;;;;2.70;1.70;;;14.70;96.10;;;;;;4995845;28;21203;-68
2023/09/21 00:18:55;;;;;;;2.53;1.80;;;14.70;96.00;;;;;;5008466;28;20836;-68
2023/09/21 00:21:24;;;;;;;2.50;1.50;;;14.70;95.90;;;;;;5010133;28;20478;-67
2023/09/21 00:23:51;;;;;;;5.60;1.87;;;14.70;95.90;;;;;;5003212;28;20525;-68
2023/09/21 00:26:18;;;;;;;4.23;1.37;;;14.50;96.10;;;;;;4996734;28;20548;-67
2023/09/21 00:28:46;;;;;;;3.80;1.87;;;14.50;96.00;;;;;;5001187;28;20901;-67
2023/09/21 00:31:14;;;;;;;5.70;1.57;;;14.50;96.10;;;;;;5009438;28;20487;-67
2023/09/21 00:33:41;;;;;;;3.90;2.07;;;14.50;96.20;;;;;;4997298;28;20479;-67
2023/09/21 00:36:12;;;;;;;2.63;1.20;;;14.50;96.20;;;;;;5013132;28;20520;-67
2023/09/21 00:38:39;;;;;;;2.47;1.40;;;14.60;96.30;;;;;;5000154;28;20809;-68
2023/09/21 00:41:07;;;;;;;2.10;1.20;;;14.60;96.50;;;;;;5007217;28;20477;-67
2023/09/21 00:43:34;;;;;;;3.30;2.13;;;14.70;96.30;;;;;;5005726;28;21305;-67
2023/09/21 00:46:04;;;;;;;3.30;1.63;;;14.60;96.50;;;;;;5014567;28;21179;-66
2023/09/21 00:48:36;;;;;;;2.80;1.43;;;14.40;96.70;;;;;;4998213;28;20486;-66
2023/09/21 00:51:06;;;;;;;2.73;1.87;;;14.40;97.00;;;;;;4984597;28;20485;-66
2023/09/21 00:53:34;;;;;;;3.50;1.90;;;14.50;96.80;;;;;;5018795;28;20497;-66
2023/09/21 00:56:08;;;;;;;2.93;1.73;;;14.50;96.70;;;;;;5012649;28;20602;-66
2023/09/21 00:58:38;;;;;;;2.37;1.50;;;14.60;97.00;;;;;;5010151;28;20863;-66
2023/09/21 01:01:05;;;;;;;8.70;2.40;;;14.60;97.10;;;;;;5012417;28;20488;-68
2023/09/21 01:03:37;;;;;;;3.03;1.70;;;14.60;97.30;;;;;;5004643;28;20729;-67
2023/09/21 01:06:11;;;;;;;5.00;1.70;;;14.50;97.50;;;;;;5011105;28;20585;-67
2023/09/21 01:08:39;;;;;;;2.80;1.20;;;14.60;97.20;;;;;;5001416;28;20555;-67
2023/09/21 01:11:13;;;;;;;4.20;1.70;;;14.70;97.30;;;;;;5016765;28;20491;-68
2023/09/21 01:13:41;;;;;;;2.00;1.27;;;14.80;97.40;;;;;;5010479;28;20476;-67
2023/09/21 01:16:10;;;;;;;4.23;1.37;;;14.90;97.50;;;;;;5008414;28;20488;-67
2023/09/21 01:18:41;;;;;;;3.03;1.50;;;15.00;97.60;;;;;;5017952;28;20468;-67
2023/09/21 01:21:10;;;;;;;4.50;2.10;;;15.00;97.70;;;;;;5004125;28;20493;-67
2023/09/21 01:23:41;;;;;;;1.90;1.23;;;15.10;97.80;;;;;;5015204;28;21098;-67
2023/09/21 01:26:08;;;;;;;3.07;1.90;;;15.20;97.90;;;;;;5010282;28;20480;-67
2023/09/21 01:28:36;;;;;;;5.00;1.50;;;15.20;97.80;;;;;;5013478;28;20489;-67
2023/09/21 01:31:05;;;;;;;3.20;1.50;;;15.30;97.80;;;;;;5022099;28;20988;-67
2023/09/21 01:33:33;;;;;;;2.93;2.17;;;15.30;97.70;;;;;;5000134;28;20485;-67
2023/09/21 01:36:00;;;;;;;2.10;1.33;;;15.40;97.80;;;;;;5012577;28;20510;-67
2023/09/21 01:38:27;;;;;;;2.93;2.40;;;15.40;97.80;;;;;;5003982;28;20476;-67
2023/09/21 01:41:00;;;;;;;2.67;1.70;;;15.50;98.10;;;;;;5015827;28;20935;-67
2023/09/21 01:43:27;;;;;;;3.03;1.77;;;15.50;98.20;;;;;;5003364;28;20532;-66
2023/09/21 01:45:54;;;;;;;2.93;1.20;;;15.50;98.40;;;;;;5016423;28;20477;-66
2023/09/21 01:48:21;;;;;;;3.30;1.70;;;15.50;98.40;;;;;;5004057;28;20842;-66
2023/09/21 01:50:50;;;;;;;2.63;1.50;;;15.50;98.50;;;;;;5009123;28;20481;-66
2023/09/21 01:53:19;;;;;;;2.10;1.27;;;15.50;98.30;;;;;;5003082;28;21308;-66
2023/09/21 01:55:47;;;;;;;2.83;2.03;;;15.60;98.30;;;;;;5003380;28;20572;-67
2023/09/21 01:58:16;;;;;;;3.90;1.93;;;15.70;98.40;;;;;;5011380;28;20513;-66
2023/09/21 02:00:46;;;;;;;4.20;2.13;;;15.70;98.50;;;;;;4993013;28;20484;-66
2023/09/21 02:03:14;;;;;;;2.60;1.63;;;15.70;98.80;;;;;;5010384;28;20507;-66
2023/09/21 02:05:41;;;;;;;2.93;2.20;;;15.70;98.70;;;;;;5018995;28;20483;-66
2023/09/21 02:08:10;;;;;;;3.63;2.13;;;15.80;98.70;;;;;;5014867;28;20476;-66
2023/09/21 02:10:38;;;;;;;3.30;1.80;;;15.70;98.70;;;;;;5000448;28;20477;-66
2023/09/21 02:13:06;;;;;;;4.47;1.90;;;15.80;98.60;;;;;;5011332;28;21004;-66
2023/09/21 02:15:37;;;;;;;2.60;1.83;;;15.80;98.70;;;;;;5007876;28;20837;-66
2023/09/21 02:18:05;;;;;;;1.93;1.20;;;15.70;98.80;;;;;;5003154;28;20847;-66
2023/09/21 02:20:34;;;;;;;2.80;1.60;;;15.80;98.80;;;;;;5005636;28;20481;-66
2023/09/21 02:23:02;;;;;;;4.73;2.33;;;15.90;98.60;;;;;;5005916;28;20469;-66
2023/09/21 02:25:31;;;;;;;3.43;1.80;;;16.00;98.70;;;;;;5015820;28;20577;-66
2023/09/21 02:27:58;;;;;;;2.10;1.20;;;16.00;98.70;;;;;;5007966;28;20860;-66
2023/09/21 02:30:25;;;;;;;3.73;2.07;;;16.10;98.50;;;;;;5013426;28;20477;-66
2023/09/21 02:32:54;;;;;;;3.60;2.00;;;16.10;98.40;;;;;;5005637;28;20478;-66
2023/09/21 02:35:25;;;;;;;3.80;2.13;;;16.20;98.50;;;;;;5003467;28;20485;-66
2023/09/21 02:37:52;;;;;;;3.30;2.67;;;16.20;98.50;;;;;;5016194;28;20571;-66
2023/09/21 02:40:21;;;;;;;2.73;2.17;;;16.20;98.60;;;;;;5014981;28;20483;-66
2023/09/21 02:42:49;;;;;;;2.90;1.87;;;16.30;98.60;;;;;;5019409;28;21196;-66
2023/09/21 02:45:18;;;;;;;5.37;2.30;;;16.20;98.70;;;;;;5028684;28;21018;-66
2023/09/21 02:47:46;;;;;;;2.40;1.67;;;16.30;98.40;;;;;;5021444;28;20511;-66
2023/09/21 02:50:15;;;;;;;2.77;1.77;;;16.20;98.40;;;;;;5027607;28;20501;-66
2023/09/21 02:52:47;;;;;;;2.77;2.10;;;16.30;98.70;;;;;;5024773;28;20575;-66
2023/09/21 02:55:16;;;;;;;3.47;2.67;;;16.20;98.90;;;;;;5030781;28;20483;-67
2023/09/21 02:57:44;;;;;;;2.80;2.10;;;16.30;98.80;;;;;;5023094;28;20492;-67
2023/09/21 03:00:20;;;;;;;2.67;1.57;;;16.30;99.10;;;;;;5024553;28;20491;-67
2023/09/21 03:02:47;;;;;;;3.00;1.73;;;16.30;99.00;;;;;;5027152;28;20480;-68
2023/09/21 03:05:16;;;;;;;2.90;2.00;;;16.30;98.60;;;;;;5024032;28;21158;-67
2023/09/21 03:07:45;;;;;;;2.00;1.60;;;16.30;98.80;;;;;;5025713;28;20726;-66
2023/09/21 03:10:13;;;;;;;2.30;1.60;;;16.30;98.60;;;;;;5021779;28;20502;-66
2023/09/21 03:12:41;;;;;;;2.50;1.93;;;16.40;98.80;;;;;;5028956;28;20505;-66
2023/09/21 03:15:13;;;;;;;3.40;2.03;;;16.40;98.70;;;;;;5037346;28;20486;-66
2023/09/21 03:17:41;;;;;;;4.50;3.10;;;16.40;99.10;;;;;;5029567;28;20527;-66
2023/09/21 03:20:11;;;;;;;3.83;2.10;;;16.40;99.00;;;;;;5025486;28;20477;-66
2023/09/21 03:22:40;;;;;;;3.10;1.50;;;16.40;99.00;;;;;;5026776;28;21069;-66
2023/09/21 03:25:11;;;;;;;3.80;1.60;;;16.40;99.50;;;;;;5016047;28;20992;-66
2023/09/21 03:27:40;;;;;;;2.60;1.53;;;16.30;99.70;;;;;;5020866;28;20930;-66
2023/09/21 03:30:11;;;;;;;3.83;1.93;;;16.30;99.50;;;;;;5013983;28;20552;-66
2023/09/21 03:32:40;;;;;;;4.23;1.83;;;16.30;99.40;;;;;;5029232;28;20540;-66
2023/09/21 03:35:10;;;;;;;2.80;1.73;;;16.30;99.70;;;;;;5017530;28;20481;-66
2023/09/21 03:37:41;;;;;;;3.17;2.27;;;16.30;99.40;;;;;;5027761;28;20575;-66
2023/09/21 03:40:09;;;;;;;4.13;2.83;;;16.40;99.10;;;;;;5035579;28;20483;-66
2023/09/21 03:42:36;;;;;;;3.00;2.00;;;16.40;98.90;;;;;;5022991;28;20995;-66
2023/09/21 03:45:04;;;;;;;2.37;1.60;;;16.40;98.90;;;;;;5033957;28;20478;-66
2023/09/21 03:47:30;;;;;;;4.00;2.20;;;16.50;98.90;;;;;;5034758;28;20984;-66
2023/09/21 03:49:58;;;;;;;4.30;1.93;;;16.60;98.90;;;;;;5025569;28;20481;-66
2023/09/21 03:52:25;;;;;;;3.77;2.13;;;16.60;98.90;;;;;;5020677;28;21279;-66
2023/09/21 03:54:54;;;;;;;4.07;1.70;;;16.60;98.70;;;;;;5017383;28;20473;-66
2023/09/21 03:57:21;;;;;;;2.63;2.03;;;16.70;98.90;;;;;;5030430;28;20486;-66
2023/09/21 03:59:48;;;;;;;7.23;1.93;;;16.70;98.70;;;;;;5022482;28;20476;-66
2023/09/21 04:02:15;;;;;;;3.70;2.60;;;16.70;98.90;;;;;;5033306;28;20480;-66
2023/09/21 04:04:44;;;;;;;5.60;2.50;;;16.60;99.20;;;;;;5023109;28;20504;-66
2023/09/21 04:07:12;;;;;;;4.33;2.40;;;16.50;99.50;;;;;;5032424;28;20480;-66
2023/09/21 04:09:39;;;;;;;2.67;1.53;;;16.50;99.30;;;;;;5024066;28;20967;-66
2023/09/21 04:12:07;;;;;;;4.10;1.73;;;16.50;99.20;;;;;;5026777;28;20480;-66
2023/09/21 04:14:35;;;;;;;3.40;1.80;;;16.50;99.40;;;;;;5026882;28;20485;-66
2023/09/21 04:17:02;;;;;;;2.93;1.70;;;16.40;99.60;;;;;;5033104;28;20472;-66
2023/09/21 04:19:30;;;;;;;2.70;1.67;;;16.50;99.60;;;;;;5025168;28;20489;-66
2023/09/21 04:21:56;;;;;;;3.10;1.67;;;16.50;99.40;;;;;;5025104;28;21240;-66
2023/09/21 04:24:23;;;;;;;2.33;1.87;;;16.60;99.10;;;;;;5032752;28;20492;-66
2023/09/21 04:26:50;;;;;;;4.23;2.20;;;16.60;99.00;;;;;;5021409;28;20495;-66
2023/09/21 04:29:18;;;;;;;2.87;2.10;;;16.60;99.10;;;;;;5017451;28;20495;-66
2023/09/21 04:31:45;;;;;;;2.80;1.90;;;16.60;99.10;;;;;;5038315;28;20480;-66
2023/09/21 04:34:12;;;;;;;4.73;2.30;;;16.70;99.20;;;;;;5018666;28;20477;-66
2023/09/21 04:36:38;;;;;;;2.67;1.40;;;16.60;99.20;;;;;;5023825;28;20837;-66
2023/09/21 04:39:05;;;;;;;3.30;1.77;;;16.60;99.60;;;;;;5019031;28;21073;-66
2023/09/21 04:41:33;;;;;;;2.60;1.60;;;16.60;99.70;;;;;;5030937;28;20504;-66
2023/09/21 04:44:02;;;;;;;2.33;1.57;;;16.50;99.70;;;;;;5024343;28;20491;-66
2023/09/21 04:46:31;;;;;;;2.93;1.80;;;16.50;99.70;;;;;;5018966;28;20534;-66
2023/09/21 04:48:58;;;;;;;2.57;2.10;;;16.50;99.60;;;;;;5023455;28;20504;-66
2023/09/21 04:51:25;;;;;;;3.47;1.80;;;16.50;99.60;;;;;;5022745;28;20488;-66
2023/09/21 04:53:52;;;;;;;4.20;2.40;;;16.50;99.50;;;;;;5027495;28;20488;-66
2023/09/21 04:56:21;;;;;;;2.50;1.50;;;16.50;99.60;;;;;;5013409;28;20971;-66
2023/09/21 04:58:49;;;;;;;2.70;2.00;;;16.50;99.90;;;;;;5028654;28;20473;-67
2023/09/21 05:01:16;;;;;;;2.97;2.13;;;16.40;99.90;;;;;;5020273;28;20551;-66
2023/09/21 05:03:44;;;;;;;2.97;1.97;;;16.50;99.90;;;;;;5025536;28;20529;-66
2023/09/21 05:06:11;;;;;;;3.70;1.60;;;16.70;99.90;;;;;;5028098;28;20483;-66
2023/09/21 05:09:35;;;;;;;2.10;1.03;;;16.80;99.90;;;;;;5024690;28;20480;-66
2023/09/21 05:12:59;;;;;;;3.23;1.70;;;16.90;99.90;;;;;;5016944;28;20830;-66
2023/09/21 05:15:26;;;;;;;2.30;1.40;;;17.10;99.90;;;;;;5025547;28;21009;-67
2023/09/21 05:17:53;;;;;;;3.13;1.50;;;17.30;99.90;;;;;;5023530;28;20492;-67
2023/09/21 05:20:21;;;;;;;7.37;1.60;;;17.40;99.90;;;;;;5019781;28;20853;-67
2023/09/21 05:22:48;;;;;;;2.20;1.10;;;17.50;99.90;;;;;;5016592;28;20488;-67
2023/09/21 05:25:15;;;;;;;2.30;1.20;;;17.60;99.90;;;;;;5021138;28;20483;-67
2023/09/21 05:27:41;;;;;;;4.27;1.20;;;17.70;99.90;;;;;;5028791;28;20468;-67
2023/09/21 05:30:09;;;;;;;4.50;1.40;;;17.80;99.90;;;;;;5024198;28;20476;-67
2023/09/21 05:32:37;;;;;;;2.20;1.10;;;17.90;99.90;;;;;;5022760;28;20480;-67
2023/09/21 05:35:05;;;;;;;3.20;1.47;;;17.90;99.90;;;;;;5027101;28;20570;-68
2023/09/21 05:37:34;;;;;;;2.30;1.40;;;18.10;99.90;;;;;;5029568;28;20480;-68
2023/09/21 05:40:05;;;;;;;2.70;1.37;;;18.20;99.90;;;;;;5020269;28;20480;-67
2023/09/21 05:42:32;;;;;;;2.07;1.43;;;18.40;99.90;;;;;;5021722;28;20491;-68
2023/09/21 05:44:59;;;;;;;1.80;1.00;;;18.60;99.90;;;;;;5018423;28;20989;-68
2023/09/21 05:47:26;;;;;;;2.67;1.03;;;18.80;99.90;;;;;;5024652;28;20750;-67
2023/09/21 05:49:52;;;;;;;1.93;1.07;;;19.00;99.90;;;;;;5028957;28;20627;-67
2023/09/21 05:52:21;;;;;;;3.30;1.27;;;19.10;99.90;;;;;;5015887;28;20485;-68
2023/09/21 05:54:49;;;;;;;2.40;0.83;;;19.20;99.90;;;;;;5029790;28;20499;-68
2023/09/21 05:57:16;;;;;;;1.80;1.10;;;19.20;99.90;;;;;;5023043;28;21204;-68
2023/09/21 05:59:44;;;;;;;4.73;1.13;;;19.20;99.90;;;;;;5009002;28;20473;-68
2023/09/21 06:02:13;;;;;;;3.10;1.13;;;19.30;99.90;;;;;;5024764;28;20479;-67
2023/09/21 06:04:41;;;;;;;2.67;0.97;;;19.30;99.90;;;;;;5024598;28;20877;-68
2023/09/21 06:07:09;;;;;;;2.37;1.10;;;19.30;99.90;;;;;;5023247;28;22520;-68
2023/09/21 06:09:35;;;;;;;1.80;1.03;;;19.30;99.90;;;;;;5024275;28;20479;-68
2023/09/21 06:12:05;;;;;;;1.60;0.80;;;19.30;99.90;;;;;;5023763;28;20477;-68
2023/09/21 06:14:32;;;;;;;2.07;0.90;;;19.30;99.90;;;;;;5022391;28;20585;-67
2023/09/21 06:16:59;;;;;;;3.80;1.13;;;19.30;99.90;;;;;;5021588;28;21005;-68
2023/09/21 06:19:26;;;;;;;3.63;1.97;;;19.40;99.90;;;;;;5015883;28;20480;-67
2023/09/21 06:21:56;;;;;;;2.40;1.00;;;19.50;99.90;;;;;;5033795;28;20485;-68
2023/09/21 06:24:24;;;;;;;4.70;1.43;;;19.50;99.90;;;;;;5027184;28;21246;-66
2023/09/21 06:26:52;;;;;;;1.80;1.20;;;19.60;99.90;;;;;;5025926;28;21171;-66
2023/09/21 06:29:22;;;;;;;1.70;0.90;;;19.60;99.90;;;;;;5006388;28;20472;-66
2023/09/21 06:31:49;;;;;;;2.43;1.20;;;19.60;99.90;;;;;;5013369;28;20994;-66
2023/09/21 06:34:21;;;;;;;2.90;1.10;;;19.60;99.90;;;;;;5025818;28;20468;-66
2023/09/21 06:36:48;;;;;;;4.07;1.53;;;19.60;99.90;;;;;;5026333;28;20480;-66
2023/09/21 06:39:16;;;;;;;1.90;1.00;;;19.60;99.90;;;;;;5024762;28;20471;-67
2023/09/21 06:41:44;;;;;;;3.60;1.40;;;19.60;99.60;;;;;;5022886;28;23354;-67
2023/09/21 06:44:12;;;;;;;1.83;1.07;;;19.60;99.70;;;;;;5020249;28;20513;-67
2023/09/21 06:46:40;;;;;;;3.50;1.73;;;19.60;99.90;;;;;;5025841;28;20488;-67
2023/09/21 06:49:07;;;;;;;2.30;1.47;;;19.60;99.60;;;;;;5022919;28;20476;-66
2023/09/21 06:51:35;;;;;;;3.60;1.50;;;19.70;99.90;;;;;;5019198;28;20477;-67
2023/09/21 06:54:01;;;;;;;2.23;1.27;;;19.80;99.60;;;;;;5025251;28;20604;-67
2023/09/21 06:56:29;;;;;;;2.67;1.30;;;19.90;99.30;;;;;;5032863;28;20740;-66
2023/09/21 06:58:57;;;;;;;2.00;1.07;;;20.00;99.80;;;;;;5027557;28;20854;-66
2023/09/21 07:01:26;;;;;;;5.50;1.40;;;20.20;99.90;;;;;;5029202;28;20904;-66
2023/09/21 07:03:54;;;;;;;2.20;1.20;;;20.20;99.80;;;;;;4996707;28;20487;-67
2023/09/21 07:06:21;;;;;;;3.03;1.50;;;20.30;99.90;;;;;;5019996;28;20471;-66
2023/09/21 07:08:49;;;;;;;1.90;1.03;;;20.40;99.90;;;;;;5014796;28;20488;-67
2023/09/21 07:11:19;;;;;;;4.37;1.37;;;20.30;99.90;;;;;;5010178;28;20493;-66
2023/09/21 07:13:46;;;;;;;2.37;1.10;;;20.30;99.90;;;;;;5026619;28;21437;-67
2023/09/21 07:16:13;;;;;;;3.73;1.40;;;20.40;99.90;;;;;;5031985;28;20476;-67
2023/09/21 07:18:40;;;;;;;2.47;1.50;;;20.50;99.90;;;;;;5032245;28;20476;-67
2023/09/21 07:21:08;;;;;;;3.80;1.50;;;20.60;99.90;;;;;;5025091;28;20535;-66
2023/09/21 07:23:35;;;;;;;2.97;1.30;;;20.60;99.90;;;;;;5022471;28;21034;-66
2023/09/21 07:26:02;;;;;;;3.60;1.30;;;20.50;99.60;;;;;;5020805;28;20484;-66
2023/09/21 07:28:30;;;;;;;2.53;1.20;;;20.50;99.90;;;;;;5038246;28;20496;-66
2023/09/21 07:30:57;;;;;;;2.40;1.30;;;20.40;99.60;;;;;;5015170;28;20503;-66
2023/09/21 07:33:25;;;;;;;2.30;1.50;;;20.40;99.80;;;;;;5023985;28;20469;-66
2023/09/21 07:35:53;;;;;;;2.90;1.07;;;20.40;99.90;;;;;;5023796;28;20492;-66
2023/09/21 07:38:22;;;;;;;3.23;1.27;;;20.40;99.90;;;;;;5032997;28;20529;-66
2023/09/21 07:40:49;;;;;;;2.10;1.33;;;20.50;99.90;;;;;;5024101;28;21016;-66
2023/09/21 07:43:17;;;;;;;2.57;1.20;;;20.60;99.90;;;;;;5022811;28;20481;-66
2023/09/21 07:45:46;;;;;;;1.80;1.17;;;20.80;99.90;;;;;;5028745;28;20480;-68
2023/09/21 07:48:15;;;;;;;2.10;1.23;;;20.90;99.90;;;;;;5030875;28;20487;-68
2023/09/21 07:50:42;;;;;;;2.07;1.20;;;21.00;99.90;;;;;;5022164;28;20484;-68
2023/09/21 07:53:09;;;;;;;2.70;1.30;;;21.10;99.60;;;;;;5024137;28;20472;-68
2023/09/21 07:55:37;;;;;;;2.40;1.40;;;21.10;99.90;;;;;;5026355;28;20472;-67
2023/09/21 07:58:05;;;;;;;5.20;1.47;;;21.10;99.80;;;;;;5026506;28;20484;-67
2023/09/21 08:00:32;;;;;;;2.60;1.80;;;21.00;99.60;;;;;;5033935;28;20490;-67
2023/09/21 08:02:58;;;;;;;2.80;1.47;;;20.90;99.50;;;;;;5022931;28;20481;-67
2023/09/21 08:05:26;;;;;;;3.40;1.30;;;20.90;99.90;;;;;;5018505;28;21176;-67
2023/09/21 08:07:52;;;;;;;3.13;1.70;;;21.00;99.90;;;;;;5017614;28;20962;-66
2023/09/21 08:10:19;;;;;;;2.90;1.60;;;21.10;99.90;;;;;;5027234;28;20490;-67
2023/09/21 08:12:48;;;;;;;2.80;1.77;;;21.20;99.90;;;;;;5019182;28;20485;-66
2023/09/21 08:15:15;;;;;;;3.03;1.53;;;20.90;99.40;;;;;;5018236;28;20592;-66
2023/09/21 08:17:42;;;;;;;2.63;1.80;;;20.90;99.80;;;;;;5018786;28;20554;-67
2023/09/21 08:20:10;;;;;;;2.30;1.53;;;20.90;99.90;;;;;;5020884;28;20480;-67
2023/09/21 08:22:37;;;;;;;2.07;1.30;;;21.00;99.90;;;;;;5022990;28;20491;-67
2023/09/21 08:25:08;;;;;;;13.33;1.60;;;21.10;99.90;;;;;;5022603;28;20483;-67
2023/09/21 08:27:35;;;;;;;3.83;1.40;;;21.20;99.90;;;;;;5029747;28;20917;-67
2023/09/21 08:30:03;;;;;;;3.17;1.90;;;21.30;99.90;;;;;;5019021;28;20473;-67
2023/09/21 08:32:31;;;;;;;2.50;1.50;;;21.40;99.90;;;;;;5015377;28;20735;-67
2023/09/21 08:34:58;;;;;;;3.30;1.77;;;21.50;99.90;;;;;;5024318;28;20468;-66
2023/09/21 08:37:25;;;;;;;1.97;1.33;;;21.60;99.80;;;;;;5035291;28;20997;-67
2023/09/21 08:39:52;;;;;;;2.90;1.73;;;21.70;99.80;;;;;;5027213;28;20476;-67
2023/09/21 08:42:19;;;;;;;3.10;1.83;;;21.80;99.90;;;;;;5023230;28;20473;-67
2023/09/21 08:44:46;;;;;;;2.00;1.30;;;21.90;99.60;;;;;;5024097;28;20845;-67
2023/09/21 08:47:15;;;;;;;2.97;1.93;;;22.10;99.50;;;;;;5023627;28;20492;-67
2023/09/21 08:49:45;;;;;;;2.20;1.27;;;22.30;99.20;;;;;;5019450;28;20492;-67
2023/09/21 08:52:13;;;;;;;2.73;1.70;;;22.40;99.00;;;;;;5022741;28;20641;-67
2023/09/21 08:54:41;;;;;;;3.03;1.40;;;22.60;99.10;;;;;;5028649;28;20479;-68
2023/09/21 08:57:11;;;;;;;2.20;1.43;;;22.80;98.70;;;;;;5024684;28;20538;-68
2023/09/21 08:59:41;;;;;;;2.20;1.83;;;22.90;98.70;;;;;;5019474;28;20506;-68
2023/09/21 09:02:12;;;;;;;2.30;1.50;;;23.10;98.50;;;;;;5019916;28;20508;-68
2023/09/21 09:04:41;;;;;;;3.17;2.17;;;23.40;99.10;;;;;;5018282;28;20501;-67
2023/09/21 09:07:08;;;;;;;3.10;1.83;;;23.60;99.70;;;;;;5022483;28;20479;-67
2023/09/21 09:09:35;;;;;;;2.40;1.67;;;23.80;98.30;;;;;;5017359;28;21211;-68
2023/09/21 09:12:02;;;;;;;2.43;1.87;;;23.70;97.70;;;;;;5011269;28;20537;-68
2023/09/21 09:14:30;;;;;;;2.70;1.97;;;23.90;98.30;;;;;;5021996;28;20975;-68
2023/09/21 09:16:57;;;;;;;2.00;1.50;;;23.70;97.60;;;;;;5024702;28;20452;-69
2023/09/21 09:19:26;;;;;;;2.90;1.70;;;23.60;97.40;;;;;;5020393;28;21010;-68
2023/09/21 09:21:56;;;;;;;2.97;1.57;;;23.60;98.20;;;;;;5028601;28;20566;-68
2023/09/21 09:24:29;;;;;;;2.60;1.40;;;23.50;97.60;;;;;;5016191;28;21082;-68
2023/09/21 09:26:57;;;;;;;2.70;1.53;;;23.70;97.90;;;;;;5026934;28;21046;-67
2023/09/21 09:29:24;;;;;;;2.43;1.23;;;23.70;97.80;;;;;;5017691;28;20476;-68
2023/09/21 09:31:52;;;;;;;3.33;1.27;;;23.60;97.20;;;;;;5021226;28;20469;-68
2023/09/21 09:34:19;;;;;;;2.17;1.33;;;23.60;97.40;;;;;;5028236;28;20983;-68
2023/09/21 09:36:46;;;;;;;2.90;1.50;;;23.70;98.90;;;;;;5027222;28;21514;-68
2023/09/21 09:39:15;;;;;;;2.20;1.70;;;23.70;96.60;;;;;;5023433;28;21066;-67
2023/09/21 09:41:42;;;;;;;2.10;1.20;;;23.50;96.70;;;;;;5017376;28;20506;-68
2023/09/21 09:44:11;;;;;;;2.33;1.10;;;23.70;97.50;;;;;;5019555;28;21636;-68
2023/09/21 09:46:42;;;;;;;1.90;1.00;;;23.70;95.80;;;;;;5019768;28;20487;-67
2023/09/21 09:49:10;;;;;;;1.93;1.30;;;23.60;96.50;;;;;;5017758;28;20492;-66
2023/09/21 09:51:42;;;;;;;2.00;1.40;;;23.50;95.70;;;;;;5019929;28;20907;-67
2023/09/21 09:54:10;;;;;;;2.03;1.20;;;23.90;96.70;;;;;;5018994;28;20492;-67
2023/09/21 09:56:41;;;;;;;2.87;1.43;;;23.90;96.00;;;;;;5023042;28;20888;-68
2023/09/21 09:59:09;;;;;;;3.80;1.10;;;23.80;96.30;;;;;;5022709;28;20561;-67
2023/09/21 10:01:39;;;;;;;2.10;1.40;;;23.90;96.10;;;;;;5025547;28;20476;-68
2023/09/21 10:04:07;;;;;;;2.03;1.33;;;24.00;96.50;;;;;;5029148;28;20785;-68
2023/09/21 10:06:35;;;;;;;2.77;1.67;;;24.10;97.00;;;;;;5018750;28;20475;-68
2023/09/21 10:09:09;;;;;;;2.23;1.13;;;24.10;96.40;;;;;;5025287;28;20553;-68
2023/09/21 10:11:38;;;;;;;2.20;1.30;;;24.20;96.70;;;;;;5024050;28;20457;-68
2023/09/21 10:14:07;;;;;;;1.70;0.80;;;24.00;95.20;;;;;;5024731;28;21116;-68
2023/09/21 10:16:38;;;;;;;3.60;0.90;;;24.00;96.00;;;;;;5030439;28;20450;-69
2023/09/21 10:19:06;;;;;;;2.43;1.27;;;23.90;95.80;;;;;;5022079;28;21227;-68
2023/09/21 10:21:38;;;;;;;1.90;0.80;;;23.90;96.00;;;;;;5027943;28;20473;-68
2023/09/21 10:24:07;;;;;;;2.10;1.10;;;23.70;96.20;;;;;;5033178;28;20550;-66
2023/09/21 10:26:35;;;;;;;3.37;0.90;;;23.80;96.50;;;;;;5015879;28;20963;-67
2023/09/21 10:29:04;;;;;;;2.03;1.23;;;23.90;96.10;;;;;;5033219;28;21005;-69
2023/09/21 10:31:32;;;;;;;4.23;1.47;;;23.70;95.50;;;;;;5028535;28;20476;-68
2023/09/21 10:34:08;;;;;;;5.80;1.50;;;23.90;96.10;;;;;;5021498;28;20484;-68
2023/09/21 10:36:40;;;;;;;5.93;1.00;;;23.80;95.90;;;;;;5030431;28;20466;-69
2023/09/21 10:39:28;;;;;;;2.00;1.20;;;23.70;95.60;;;;;;5030757;28;20460;-68
2023/09/21 10:41:57;;;;;;;2.73;1.13;;;23.70;96.30;;;;;;5027684;28;20978;-67
2023/09/21 10:44:56;;;;;;;3.27;1.30;;;23.70;96.00;;;;;;5021136;28;20850;-68
2023/09/21 10:47:28;;;;;;;1.90;1.07;;;23.70;95.80;;;;;;5005958;28;20539;-68
2023/09/21 10:49:57;;;;;;;3.10;1.13;;;23.80;95.90;;;;;;5003883;28;20480;-68
2023/09/21 10:52:26;;;;;;;3.60;1.43;;;23.70;95.90;;;;;;5005108;28;20520;-67
2023/09/21 10:54:53;;;;;;;2.07;1.00;;;23.80;95.50;;;;;;5001379;28;20485;-68
2023/09/21 10:57:24;;;;;;;1.90;1.00;;;24.00;95.80;;;;;;5004446;28;20475;-67
2023/09/21 10:59:52;;;;;;;3.70;1.53;;;24.20;95.60;;;;;;5004073;28;20463;-69
2023/09/21 11:02:21;;;;;;;3.20;1.20;;;24.40;96.20;;;;;;5010106;28;20487;-67
2023/09/21 11:04:49;;;;;;;2.67;0.97;;;24.60;95.80;;;;;;4999911;28;20484;-69
2023/09/21 11:07:17;;;;;;;1.70;0.70;;;24.70;94.80;;;;;;4998550;28;20491;-67
2023/09/21 11:09:44;;;;;;;2.73;0.77;;;24.70;94.50;;;;;;5000700;28;21046;-68
2023/09/21 11:12:13;;;;;;;1.50;0.60;;;24.80;95.10;;;;;;5002354;28;21056;-65
2023/09/21 11:14:43;;;;;;;2.40;0.90;;;24.60;93.80;;;;;;4996441;28;20480;-67
2023/09/21 11:17:11;;;;;;;1.80;1.00;;;24.60;93.90;;;;;;4997911;28;20668;-66
2023/09/21 11:19:42;;;;;;;1.97;0.90;;;24.40;93.60;;;;;;5000904;28;20477;-67
2023/09/21 11:22:10;;;;;;;1.80;0.73;;;24.50;94.20;;;;;;5001997;28;20481;-68
2023/09/21 11:24:37;;;;;;;2.23;1.10;;;24.60;94.80;;;;;;4996482;28;20452;-67
2023/09/21 11:27:06;;;;;;;2.07;0.70;;;24.50;94.40;;;;;;4999640;28;21932;-69
2023/09/21 11:29:34;;;;;;;2.80;1.00;;;24.40;94.00;;;;;;4999766;28;21046;-69
2023/09/21 11:32:01;;;;;;;5.30;1.30;;;24.40;94.30;;;;;;4998548;28;20486;-68
2023/09/21 11:34:29;;;;;;;6.50;1.07;;;24.40;95.10;;;;;;4999728;28;20962;-69
2023/09/21 11:36:57;;;;;;;2.67;1.07;;;24.60;95.60;;;;;;5000114;28;20563;-69
2023/09/21 11:39:27;;;;;;;4.00;1.57;;;24.50;94.70;;;;;;5004729;28;20937;-68
2023/09/21 11:41:55;;;;;;;4.73;1.37;;;24.60;95.80;;;;;;5001129;28;20468;-68
2023/09/21 11:44:27;;;;;;;1.70;0.87;;;24.70;95.10;;;;;;5006441;28;20478;-68
2023/09/21 11:46:57;;;;;;;2.40;1.30;;;24.70;95.10;;;;;;4998114;28;21249;-68
2023/09/21 11:49:34;;;;;;;3.53;0.80;;;24.60;95.30;;;;;;4998710;28;21841;-67
2023/09/21 11:52:03;;;;;;;2.17;1.23;;;24.60;94.70;;;;;;4998381;28;20767;-69
2023/09/21 11:54:30;;;;;;;2.10;1.20;;;24.40;94.90;;;;;;4997281;28;20520;-68
2023/09/21 11:56:57;;;;;;;3.10;1.47;;;24.40;95.00;;;;;;4999099;28;21052;-68
2023/09/21 11:59:24;;;;;;;2.93;1.13;;;24.30;95.20;;;;;;4997046;28;21523;-68
2023/09/21 12:01:51;;;;;;;2.50;1.03;;;24.50;95.00;;;;;;5000383;28;20477;-68
2023/09/21 12:04:18;;;;;;;1.63;0.80;;;24.50;95.30;;;;;;4996978;28;20952;-67
2023/09/21 12:06:45;;;;;;;1.80;1.10;;;24.60;94.80;;;;;;4999553;28;20492;-68
2023/09/21 12:09:13;;;;;;;1.90;0.90;;;24.40;94.70;;;;;;5000570;28;21125;-69
2023/09/21 12:11:40;;;;;;;1.70;0.80;;;24.50;95.00;;;;;;5001975;28;20450;-68
2023/09/21 12:14:08;;;;;;;2.40;1.00;;;24.60;95.20;;;;;;4998796;28;20469;-69
2023/09/21 12:16:35;;;;;;;1.70;0.90;;;24.40;94.10;;;;;;4998340;28;20461;-68
2023/09/21 12:19:03;;;;;;;2.70;1.23;;;24.40;94.90;;;;;;4998621;28;20485;-68
2023/09/21 12:21:30;;;;;;;2.27;1.20;;;24.50;94.50;;;;;;4998795;28;20478;-68
2023/09/21 12:23:58;;;;;;;1.70;0.90;;;24.70;95.50;;;;;;4997141;28;21083;-68
2023/09/21 12:26:26;;;;;;;2.20;1.20;;;24.70;94.80;;;;;;4996246;28;20907;-69
2023/09/21 12:28:54;;;;;;;2.57;1.30;;;24.60;94.20;;;;;;4997220;28;20493;-68
2023/09/21 12:31:22;;;;;;;2.77;1.30;;;24.70;95.10;;;;;;5002110;28;20473;-68
2023/09/21 12:33:50;;;;;;;4.17;1.27;;;24.80;95.50;;;;;;4996305;28;20481;-68
2023/09/21 12:36:17;;;;;;;1.93;1.23;;;25.00;95.80;;;;;;4996344;28;20457;-68
2023/09/21 12:38:44;;;;;;;4.20;1.50;;;24.90;95.30;;;;;;4997850;28;20943;-69
2023/09/21 12:41:11;;;;;;;3.27;1.40;;;24.80;94.20;;;;;;5000439;28;20452;-69
2023/09/21 12:43:39;;;;;;;2.97;1.70;;;24.70;94.60;;;;;;4997638;28;20700;-69
2023/09/21 12:46:08;;;;;;;3.30;1.50;;;24.60;94.40;;;;;;4998507;28;20486;-69
2023/09/21 12:48:36;;;;;;;2.07;1.23;;;24.50;95.10;;;;;;4996540;28;20475;-68
2023/09/21 12:51:03;;;;;;;2.30;1.77;;;24.60;95.40;;;;;;4999249;28;20468;-69
2023/09/21 12:53:32;;;;;;;2.87;1.60;;;24.60;94.90;;;;;;4998283;28;20742;-69
2023/09/21 12:55:59;;;;;;;2.83;1.60;;;24.70;95.40;;;;;;4997395;28;20458;-70